Harrison, South Dakota
Current Conditions -  °F | °C
As of 7:53 AM on Thursday 30 Oct 2014 (Local Time) from KMHE Reporting Station
Clear Clear  
Wind Chill: 30°   Ceiling: Unl
Heat Index: 38°   Visibility: 10mi
Dew Point: 34°   Wind: 12mph
Humidity: 86%   Direction: 310°NW
Pressure: 30.06"   Gusts: NA
Location:  43.43°N, 98.53°W
Report Text: KMHE 301253Z AUTO 31010KT 10SM CLR 03/01 A3006 RMK AO2 SLP188 T00330011
Loading
Personal Weather Stations






























Interactive Weather Map
Tropical Storm Tracking
New forecast layout! Learn more

10-Day Weather Forecast

Advertisements
Track Severe Weather on mobile